createdAt,value
2022-09-10T00:01:41.419Z,2.03
2022-09-10T00:04:10.534Z,2.17
2022-09-10T00:06:38.703Z,2.60
2022-09-10T00:09:06.196Z,1.53
2022-09-10T00:11:32.920Z,1.37
2022-09-10T00:14:00.212Z,2.50
2022-09-10T00:16:27.646Z,2.23
2022-09-10T00:18:54.359Z,1.20
2022-09-10T00:21:21.005Z,2.10
2022-09-10T00:23:48.198Z,1.70
2022-09-10T00:26:18.157Z,1.40
2022-09-10T00:28:44.923Z,1.97
2022-09-10T00:31:11.797Z,1.80
2022-09-10T00:33:38.758Z,1.77
2022-09-10T00:36:14.097Z,1.70
2022-09-10T00:38:40.969Z,2.30
2022-09-10T00:41:08.246Z,2.27
2022-09-10T00:43:49.050Z,1.73
2022-09-10T00:46:35.822Z,2.53
2022-09-10T00:49:04.105Z,2.47
2022-09-10T00:51:33.008Z,2.10
2022-09-10T00:54:00.388Z,2.10
2022-09-10T00:56:28.283Z,2.27
2022-09-10T00:58:54.970Z,2.10
2022-09-10T01:01:22.175Z,2.03
2022-09-10T01:03:49.606Z,2.90
2022-09-10T01:06:17.560Z,1.97
2022-09-10T01:08:44.113Z,2.50
2022-09-10T01:11:16.621Z,3.70
2022-09-10T01:14:01.934Z,2.37
2022-09-10T01:16:39.040Z,2.33
2022-09-10T01:19:18.740Z,1.70
2022-09-10T01:21:48.396Z,2.80
2022-09-10T01:24:33.767Z,2.20
2022-09-10T01:27:00.517Z,2.80
2022-09-10T01:29:35.842Z,2.60
2022-09-10T01:32:12.331Z,2.77
2022-09-10T01:34:59.399Z,2.30
2022-09-10T01:37:28.983Z,2.40
2022-09-10T01:39:56.477Z,3.30
2022-09-10T01:42:27.135Z,3.13
2022-09-10T01:44:57.751Z,3.37
2022-09-10T01:47:28.001Z,2.50
2022-09-10T01:50:03.606Z,1.97
2022-09-10T01:52:30.297Z,3.33
2022-09-10T01:55:03.217Z,2.60
2022-09-10T01:57:38.494Z,2.93
2022-09-10T02:00:11.781Z,2.07
2022-09-10T02:02:52.991Z,1.30
2022-09-10T02:05:20.927Z,2.90
2022-09-10T02:07:56.113Z,3.00
2022-09-10T02:10:23.676Z,3.20
2022-09-10T02:12:58.403Z,3.00
2022-09-10T02:15:49.308Z,3.73
2022-09-10T02:18:21.884Z,5.07
2022-09-10T02:21:17.825Z,4.50
2022-09-10T02:26:33.476Z,3.93
2022-09-10T02:29:04.254Z,3.77
2022-09-10T02:31:31.056Z,3.23
2022-09-10T02:33:58.340Z,4.13
2022-09-10T02:36:27.820Z,4.40
2022-09-10T02:38:56.972Z,5.40
2022-09-10T02:41:28.513Z,5.20
2022-09-10T02:44:02.035Z,4.90
2022-09-10T02:46:32.032Z,3.60
2022-09-10T02:48:59.247Z,5.40
2022-09-10T02:51:29.813Z,3.40
2022-09-10T02:54:01.418Z,4.93
2022-09-10T02:56:28.277Z,4.60
2022-09-10T02:58:55.152Z,5.80
2022-09-10T03:01:23.037Z,5.20
2022-09-10T03:04:01.936Z,4.30
2022-09-10T03:06:29.999Z,4.73
2022-09-10T03:08:57.989Z,6.10
2022-09-10T03:11:27.526Z,5.43
2022-09-10T03:13:57.229Z,4.73
2022-09-10T03:16:24.605Z,5.90
2022-09-10T03:18:52.305Z,5.70
2022-09-10T03:21:20.595Z,8.53
2022-09-10T03:23:54.408Z,6.23
2022-09-10T03:26:27.534Z,5.70
2022-09-10T03:28:54.806Z,6.50
2022-09-10T03:31:24.413Z,8.13
2022-09-10T03:33:51.338Z,7.20
2022-09-10T03:36:21.054Z,6.60
2022-09-10T03:38:56.493Z,7.57
2022-09-10T03:41:30.672Z,5.83
2022-09-10T03:43:59.679Z,6.93
2022-09-10T03:46:32.239Z,6.00
2022-09-10T03:49:04.432Z,6.23
2022-09-10T03:51:34.123Z,6.70
2022-09-10T03:54:01.127Z,5.63
2022-09-10T03:56:30.595Z,5.60
2022-09-10T03:58:57.497Z,6.10
2022-09-10T04:01:27.110Z,6.37
2022-09-10T04:04:05.876Z,7.10
2022-09-10T04:06:38.692Z,5.70
2022-09-10T04:09:05.315Z,6.80
2022-09-10T04:11:32.181Z,5.80
2022-09-10T04:14:03.575Z,7.47
2022-09-10T04:16:39.982Z,5.53
2022-09-10T04:19:17.079Z,5.60
2022-09-10T04:21:46.329Z,6.17
2022-09-10T04:24:18.035Z,6.13
2022-09-10T04:27:01.015Z,5.83
2022-09-10T04:29:28.115Z,5.83
2022-09-10T04:31:55.666Z,6.43
2022-09-10T04:34:22.767Z,6.40
2022-09-10T04:36:53.686Z,7.33
2022-09-10T04:39:21.333Z,6.43
2022-09-10T04:41:51.935Z,5.40
2022-09-10T04:44:20.116Z,4.80
2022-09-10T04:46:47.837Z,4.83
2022-09-10T04:49:14.628Z,5.87
2022-09-10T04:51:54.957Z,5.77
2022-09-10T04:54:22.221Z,5.77
2022-09-10T04:56:49.651Z,6.70
2022-09-10T05:03:24.769Z,6.60
2022-09-10T05:09:31.285Z,5.37
2022-09-10T05:11:59.469Z,5.00
2022-09-10T05:14:26.585Z,5.33
2022-09-10T05:16:53.383Z,4.80
2022-09-10T05:19:20.395Z,4.17
2022-09-10T05:21:52.199Z,4.80
2022-09-10T05:24:19.312Z,4.80
2022-09-10T05:26:46.866Z,5.37
2022-09-10T05:29:14.137Z,6.50
2022-09-10T05:31:41.727Z,5.43
2022-09-10T05:34:11.722Z,6.50
2022-09-10T05:36:38.759Z,5.23
2022-09-10T05:39:05.401Z,4.23
2022-09-10T05:41:35.134Z,6.27
2022-09-10T05:44:02.172Z,4.60
2022-09-10T05:46:31.087Z,5.43
2022-09-10T05:49:01.898Z,5.93
2022-09-10T05:51:30.639Z,6.50
2022-09-10T05:54:01.741Z,7.47
2022-09-10T05:56:31.658Z,5.90
2022-09-10T05:58:58.388Z,6.70
2022-09-10T06:01:25.426Z,5.00
2022-09-10T06:03:52.349Z,5.87
2022-09-10T06:06:19.566Z,5.97
2022-09-10T06:08:57.548Z,6.50
2022-09-10T06:11:36.187Z,6.20
2022-09-10T06:14:02.763Z,7.40
2022-09-10T06:16:29.327Z,7.27
2022-09-10T06:18:57.289Z,5.97
2022-09-10T06:21:28.296Z,7.00
2022-09-10T06:23:56.521Z,6.97
2022-09-10T06:26:25.514Z,7.00
2022-09-10T06:28:56.838Z,5.13
2022-09-10T06:31:23.901Z,6.60
2022-09-10T06:33:53.127Z,6.13
2022-09-10T06:36:23.072Z,6.53
2022-09-10T06:38:50.523Z,5.33
2022-09-10T06:41:17.553Z,6.30
2022-09-10T06:43:51.184Z,5.73
2022-09-10T06:49:29.653Z,5.77
2022-09-10T06:51:56.724Z,5.13
2022-09-10T06:54:25.179Z,7.10
2022-09-10T06:56:53.804Z,4.93
2022-09-10T06:59:20.882Z,5.20
2022-09-10T07:01:49.368Z,4.80
2022-09-10T07:04:17.423Z,5.17
2022-09-10T07:06:45.969Z,5.40
2022-09-10T07:09:16.517Z,4.70
2022-09-10T07:11:54.086Z,5.70
2022-09-10T07:14:21.492Z,7.23
2022-09-10T07:16:51.385Z,3.40
2022-09-10T07:19:20.659Z,5.53
2022-09-10T07:21:47.732Z,5.90
2022-09-10T07:24:16.117Z,6.03
2022-09-10T07:26:57.672Z,6.20
2022-09-10T07:29:24.403Z,6.43
2022-09-10T07:31:52.478Z,7.10
2022-09-10T07:34:23.537Z,7.20
2022-09-10T07:36:50.666Z,6.17
2022-09-10T07:39:22.333Z,6.40
2022-09-10T07:41:52.367Z,6.60
2022-09-10T07:44:22.368Z,7.00
2022-09-10T07:46:49.547Z,7.20
2022-09-10T07:49:17.133Z,5.83
2022-09-10T07:51:47.129Z,6.43
2022-09-10T07:54:17.027Z,7.27
2022-09-10T07:56:49.155Z,6.83
2022-09-10T07:59:15.877Z,7.47
2022-09-10T08:01:50.035Z,6.70
2022-09-10T08:04:18.921Z,7.20
2022-09-10T08:06:45.504Z,6.57
2022-09-10T08:09:14.927Z,6.40
2022-09-10T08:11:49.635Z,6.93
2022-09-10T08:14:19.035Z,9.23
2022-09-10T08:16:50.751Z,8.60
2022-09-10T08:19:18.067Z,10.03
2022-09-10T08:21:45.651Z,7.50
2022-09-10T08:24:14.805Z,8.73
2022-09-10T08:26:44.453Z,8.67
2022-09-10T08:29:12.227Z,7.13
2022-09-10T08:31:39.120Z,6.10
2022-09-10T08:34:13.799Z,10.03
2022-09-10T08:36:44.324Z,9.93
2022-09-10T08:39:19.125Z,9.80
2022-09-10T08:41:52.287Z,8.30
2022-09-10T08:44:27.850Z,10.77
2022-09-10T08:46:55.651Z,7.87
2022-09-10T08:49:22.943Z,10.17
2022-09-10T08:51:53.958Z,11.80
2022-09-10T08:54:26.135Z,9.07
2022-09-10T08:56:56.007Z,10.80
2022-09-10T08:59:25.355Z,12.57
2022-09-10T09:02:09.868Z,14.00
2022-09-10T09:04:55.993Z,13.73
2022-09-10T09:07:22.996Z,10.60
2022-09-10T09:09:56.242Z,12.97
2022-09-10T09:12:34.605Z,13.77
2022-09-10T09:15:13.072Z,13.60
2022-09-10T09:17:55.557Z,12.50
2022-09-10T09:20:42.848Z,13.13
2022-09-10T09:23:28.907Z,12.50
2022-09-10T09:25:56.405Z,13.67
2022-09-10T09:28:42.784Z,12.90
2022-09-10T09:31:14.186Z,12.17
2022-09-10T09:33:41.505Z,12.03
2022-09-10T09:36:13.650Z,14.97
2022-09-10T09:38:42.999Z,15.70
2022-09-10T09:41:32.660Z,13.97
2022-09-10T09:44:05.638Z,14.87
2022-09-10T09:46:34.540Z,13.37
2022-09-10T09:49:04.872Z,15.07
2022-09-10T09:51:35.816Z,14.90
2022-09-10T09:56:56.659Z,14.37
2022-09-10T09:59:35.640Z,12.70
2022-09-10T10:02:06.716Z,13.83
2022-09-10T10:04:42.057Z,11.97
2022-09-10T10:07:09.586Z,14.87
2022-09-10T10:09:41.393Z,12.70
2022-09-10T10:12:18.661Z,12.80
2022-09-10T10:14:45.380Z,10.17
2022-09-10T10:17:41.825Z,12.60
2022-09-10T10:20:41.576Z,10.20
2022-09-10T10:23:32.026Z,9.73
2022-09-10T10:30:53.651Z,12.50
2022-09-10T10:33:33.629Z,11.23
2022-09-10T10:36:30.486Z,11.37
2022-09-10T10:39:36.230Z,10.40
2022-09-10T10:43:03.858Z,11.07
2022-09-10T10:46:01.648Z,11.07
2022-09-10T10:48:57.930Z,10.93
2022-09-10T10:56:36.476Z,9.93
2022-09-10T11:15:03.079Z,13.77
2022-09-10T11:18:10.361Z,13.67
2022-09-10T11:28:22.702Z,12.67
2022-09-10T11:31:15.541Z,15.33
2022-09-10T11:42:30.758Z,14.27
2022-09-10T11:45:27.674Z,17.77
2022-09-10T11:48:01.081Z,14.53
2022-09-10T11:50:36.463Z,15.50
2022-09-10T11:53:07.653Z,15.33
2022-09-10T11:55:44.891Z,20.97
2022-09-10T11:58:26.876Z,21.30
2022-09-10T12:01:20.146Z,16.93
2022-09-10T12:03:56.728Z,18.43
2022-09-10T12:06:30.779Z,20.20
2022-09-10T12:09:23.842Z,20.23
2022-09-10T12:15:27.435Z,20.07
2022-09-10T12:17:56.331Z,21.37
2022-09-10T12:20:38.429Z,24.80
2022-09-10T12:23:32.717Z,28.03
2022-09-10T12:26:06.766Z,28.63
2022-09-10T12:28:42.723Z,28.47
2022-09-10T12:31:10.824Z,27.90
2022-09-10T12:33:46.470Z,28.30
2022-09-10T12:36:14.304Z,30.50
2022-09-10T12:39:10.462Z,34.20
2022-09-10T12:41:37.285Z,31.60
2022-09-10T12:44:24.989Z,28.40
2022-09-10T12:47:10.628Z,24.13
2022-09-10T12:49:48.754Z,29.30
2022-09-10T12:52:22.668Z,28.10
2022-09-10T12:55:26.585Z,28.27
2022-09-10T12:58:05.313Z,22.23
2022-09-10T13:00:42.049Z,28.30
2022-09-10T13:03:11.654Z,28.73
2022-09-10T13:05:44.677Z,25.17
2022-09-10T13:08:32.176Z,24.80
2022-09-10T13:11:27.366Z,22.30
2022-09-10T13:16:52.225Z,20.47
2022-09-10T13:20:18.081Z,19.73
2022-09-10T13:22:56.158Z,19.73
2022-09-10T14:19:30.700Z,8.70
2022-09-10T14:43:13.176Z,6.83
2022-09-10T15:17:37.657Z,3.90
2022-09-10T15:20:04.611Z,4.80
2022-09-10T15:22:31.810Z,4.30
2022-09-10T15:28:13.674Z,5.47
2022-09-10T15:30:40.466Z,5.60
2022-09-10T15:33:12.915Z,5.43
2022-09-10T15:35:42.670Z,5.40
2022-09-10T15:38:13.195Z,5.90
2022-09-10T15:40:43.140Z,5.97
2022-09-10T15:43:26.254Z,5.97
2022-09-10T15:46:09.719Z,5.73
2022-09-10T15:48:52.347Z,6.57
2022-09-10T15:51:48.958Z,5.50
2022-09-10T15:54:16.088Z,8.03
2022-09-10T15:56:43.233Z,6.67
2022-09-10T15:59:17.298Z,4.53
2022-09-10T16:01:44.804Z,5.17
2022-09-10T16:04:19.407Z,6.23
2022-09-10T16:06:48.860Z,6.53
2022-09-10T16:09:15.807Z,6.27
2022-09-10T16:12:05.280Z,6.17
2022-09-10T16:14:35.301Z,6.60
2022-09-10T16:17:02.449Z,6.63
2022-09-10T16:19:29.485Z,6.27
2022-09-10T16:21:56.020Z,6.77
2022-09-10T16:30:53.291Z,6.37
2022-09-10T16:33:20.379Z,5.97
2022-09-10T16:35:49.687Z,6.63
2022-09-10T16:38:22.077Z,5.90
2022-09-10T16:40:59.422Z,8.00
2022-09-10T16:43:58.996Z,6.37
2022-09-10T16:46:38.314Z,5.57
2022-09-10T16:49:05.913Z,6.30
2022-09-10T16:51:34.570Z,6.27
2022-09-10T16:54:10.579Z,6.20
2022-09-10T17:00:00.121Z,7.17
2022-09-10T17:02:35.513Z,6.67
2022-09-10T17:05:02.413Z,7.60
2022-09-10T17:07:30.319Z,6.07
2022-09-10T17:10:01.635Z,6.60
2022-09-10T17:12:35.951Z,7.50
2022-09-10T17:18:10.076Z,7.13
2022-09-10T17:20:38.584Z,6.70
2022-09-10T17:27:16.821Z,6.30
2022-09-10T17:30:09.072Z,7.13
2022-09-10T17:33:18.309Z,7.27
2022-09-10T17:36:06.185Z,8.70
2022-09-10T17:41:55.327Z,8.00
2022-09-10T17:44:39.609Z,8.10
2022-09-10T17:47:23.053Z,9.53
2022-09-10T17:52:45.952Z,9.57
2022-09-10T17:55:24.851Z,8.80
2022-09-10T17:57:53.921Z,10.50
2022-09-10T18:00:24.095Z,10.30
2022-09-10T18:02:51.192Z,9.97
2022-09-10T18:05:22.271Z,10.03
2022-09-10T18:08:18.062Z,9.90
2022-09-10T18:10:48.688Z,10.93
2022-09-10T18:13:22.015Z,13.90
2022-09-10T18:15:54.202Z,13.43
2022-09-10T18:18:21.096Z,12.63
2022-09-10T18:20:47.921Z,14.33
2022-09-10T18:23:14.975Z,13.43
2022-09-10T18:25:47.916Z,15.00
2022-09-10T18:28:16.791Z,14.73
2022-09-10T18:31:09.935Z,14.90
2022-09-10T18:33:38.376Z,17.10
2022-09-10T18:36:31.892Z,15.97
2022-09-10T18:39:01.931Z,17.00
2022-09-10T18:41:48.248Z,17.10
2022-09-10T18:44:20.690Z,18.77
2022-09-10T18:46:48.424Z,21.43
2022-09-10T18:49:21.159Z,22.70
2022-09-10T18:51:48.888Z,24.40
2022-09-10T18:54:16.327Z,25.50
2022-09-10T18:56:50.428Z,23.53
2022-09-10T18:59:20.185Z,23.87
2022-09-10T19:02:15.686Z,22.93
2022-09-10T19:05:00.722Z,23.30
2022-09-10T19:07:43.598Z,21.97
2022-09-10T19:10:10.863Z,22.30
2022-09-10T19:12:40.891Z,21.13
2022-09-10T19:15:08.031Z,21.50
2022-09-10T19:17:34.976Z,21.20
2022-09-10T19:20:01.984Z,21.13
2022-09-10T19:22:30.003Z,21.90
2022-09-10T19:25:01.495Z,20.50
2022-09-10T19:27:29.422Z,18.77
2022-09-10T19:29:56.582Z,18.53
2022-09-10T19:32:42.396Z,16.97
2022-09-10T19:35:56.564Z,18.93
2022-09-10T19:38:37.067Z,16.90
2022-09-10T19:41:20.111Z,16.03
2022-09-10T19:43:50.028Z,17.70
2022-09-10T19:46:20.040Z,16.97
2022-09-10T19:48:51.765Z,17.57
2022-09-10T19:51:20.274Z,16.83
2022-09-10T19:53:47.823Z,16.67
2022-09-10T19:56:20.304Z,17.30
2022-09-10T19:58:49.909Z,16.00
2022-09-10T20:01:18.473Z,16.30
2022-09-10T20:03:46.036Z,14.50
2022-09-10T20:06:13.978Z,15.83
2022-09-10T20:08:41.722Z,15.30
2022-09-10T20:11:15.840Z,15.37
2022-09-10T20:13:45.161Z,15.70
2022-09-10T20:16:13.628Z,15.50
2022-09-10T20:18:40.590Z,15.33
2022-09-10T20:21:13.931Z,14.60
2022-09-10T20:23:41.641Z,16.30
2022-09-10T20:26:10.555Z,15.00
2022-09-10T20:28:37.602Z,14.77
2022-09-10T20:31:09.003Z,16.13
2022-09-10T20:33:36.796Z,17.90
2022-09-10T20:36:04.391Z,16.60
2022-09-10T20:38:31.610Z,18.50
2022-09-10T20:40:58.883Z,17.00
2022-09-10T20:43:25.732Z,17.90
2022-09-10T20:45:52.370Z,17.53
2022-09-10T20:48:19.196Z,18.50
2022-09-10T20:50:56.143Z,17.43
2022-09-10T20:53:22.831Z,19.00
2022-09-10T20:55:50.091Z,19.47
2022-09-10T20:58:17.344Z,22.10
2022-09-10T21:00:45.397Z,20.80
2022-09-10T21:03:13.239Z,22.70
2022-09-10T21:05:40.056Z,21.97
2022-09-10T21:08:06.763Z,21.27
2022-09-10T21:10:37.511Z,21.00
2022-09-10T21:13:09.902Z,21.70
2022-09-10T21:15:38.174Z,20.97
2022-09-10T21:18:05.088Z,20.60
2022-09-10T21:20:32.147Z,18.83
2022-09-10T21:22:59.037Z,19.43
2022-09-10T21:25:26.121Z,20.50
2022-09-10T21:27:52.750Z,20.33
2022-09-10T21:30:19.439Z,21.13
2022-09-10T21:32:46.096Z,21.67
2022-09-10T21:35:12.751Z,20.83
2022-09-10T21:37:40.529Z,20.30
2022-09-10T21:40:08.564Z,22.20
2022-09-10T21:42:35.355Z,21.93
2022-09-10T21:45:02.065Z,21.73
2022-09-10T21:47:28.775Z,20.70
2022-09-10T21:49:55.462Z,20.83
2022-09-10T21:52:22.251Z,20.97
2022-09-10T21:54:49.062Z,21.43
2022-09-10T21:57:16.316Z,20.30
2022-09-10T21:59:42.920Z,22.67
2022-09-10T22:02:10.193Z,22.27
2022-09-10T22:04:37.067Z,22.77
2022-09-10T22:07:04.683Z,24.87
2022-09-10T22:09:32.135Z,23.70
2022-09-10T22:11:59.120Z,22.60
2022-09-10T22:14:26.235Z,24.10
2022-09-10T22:16:53.594Z,23.30
2022-09-10T22:19:22.511Z,24.77
2022-09-10T22:21:50.043Z,26.30
2022-09-10T22:24:19.485Z,25.20
2022-09-10T22:26:47.131Z,25.07
2022-09-10T22:29:15.482Z,28.23
2022-09-10T22:31:42.110Z,31.07
2022-09-10T22:34:13.548Z,27.43
2022-09-10T22:36:40.832Z,27.90
2022-09-10T22:39:10.124Z,30.20
2022-09-10T22:41:38.306Z,30.90
2022-09-10T22:44:05.775Z,29.93
2022-09-10T22:46:33.318Z,29.53
2022-09-10T22:49:00.164Z,30.87
2022-09-10T22:51:28.065Z,29.40
2022-09-10T22:53:55.329Z,34.27
2022-09-10T22:56:22.751Z,33.33
2022-09-10T22:58:51.632Z,32.00
2022-09-10T23:01:20.158Z,33.77
2022-09-10T23:03:48.089Z,36.67
2022-09-10T23:06:19.551Z,34.07
2022-09-10T23:08:47.862Z,34.47
2022-09-10T23:11:17.689Z,35.63
2022-09-10T23:13:45.820Z,40.47
2022-09-10T23:16:17.146Z,39.60
2022-09-10T23:18:47.348Z,41.10
2022-09-10T23:21:13.936Z,42.47
2022-09-10T23:23:44.272Z,41.70
2022-09-10T23:26:11.386Z,42.23
2022-09-10T23:28:38.430Z,43.50
2022-09-10T23:31:15.595Z,43.33
2022-09-10T23:33:43.136Z,44.50
2022-09-10T23:36:11.659Z,43.17
2022-09-10T23:38:39.779Z,45.87
2022-09-10T23:41:06.476Z,45.20
2022-09-10T23:43:33.156Z,46.77
2022-09-10T23:46:00.061Z,46.70
2022-09-10T23:48:26.820Z,48.03
2022-09-10T23:50:54.329Z,52.17
2022-09-10T23:53:21.392Z,56.23
2022-09-10T23:55:48.289Z,57.17
2022-09-10T23:58:16.882Z,59.20
